Time;durP1;ratioP1;P1;durP2;ratioP2;P2;SDS_P1;SDS_P2;PMS_P1;PMS_P2;Temp;Humidity;BMP_temperature;BMP_pressure;BME280_temperature;BME280_humidity;BME280_pressure;Samples;Min_cycle;Max_cycle;Signal;HPM_P1;HPM_P2
2024/02/11 00:00:23;;;;;;;24.67;17.73;;;;;;;9.43;100.00;153781.75;5036181;28;20543;-92
2024/02/11 00:02:51;;;;;;;21.10;16.70;;;;;;;9.45;100.00;153786.94;5035625;28;20443;-92
2024/02/11 00:05:18;;;;;;;26.10;17.50;;;;;;;9.43;100.00;153780.47;5018990;28;20478;-92
2024/02/11 00:07:45;;;;;;;23.10;18.27;;;;;;;9.44;100.00;153783.06;5035770;28;20443;-92
2024/02/11 00:10:13;;;;;;;23.40;17.83;;;;;;;9.43;100.00;153781.75;5035915;28;20501;-92
2024/02/11 00:12:40;;;;;;;24.70;19.50;;;;;;;9.40;100.00;153774.00;5035885;28;20435;-92
2024/02/11 00:15:08;;;;;;;26.90;18.90;;;;;;;9.39;100.00;153770.13;5053326;28;20430;-92
2024/02/11 00:17:35;;;;;;;25.30;19.90;;;;;;;9.39;100.00;153771.44;5034990;28;20532;-92
2024/02/11 00:20:02;;;;;;;26.60;18.73;;;;;;;9.40;100.00;153774.00;5052647;28;20957;-92
2024/02/11 00:22:30;;;;;;;26.00;18.97;;;;;;;9.38;100.00;153768.84;5017572;28;20455;-91
2024/02/11 00:24:57;;;;;;;21.83;17.03;;;;;;;9.36;100.00;153763.66;5033435;28;20496;-90
2024/02/11 00:27:23;;;;;;;24.20;17.30;;;;;;;9.36;100.00;153763.66;5035985;28;20475;-92
2024/02/11 00:29:51;;;;;;;23.77;18.73;;;;;;;9.37;100.00;153764.97;5032752;28;20436;-91
2024/02/11 00:32:18;;;;;;;26.77;17.77;;;;;;;9.39;100.00;153771.44;5005318;28;20901;-91
2024/02/11 00:34:46;;;;;;;26.50;18.10;;;;;;;9.39;100.00;153771.44;5034070;28;20439;-89
2024/02/11 00:37:12;;;;;;;25.90;18.60;;;;;;;9.38;100.00;153768.84;5038000;28;21007;-91
2024/02/11 00:39:40;;;;;;;20.27;17.00;;;;;;;9.37;100.00;153766.22;5016938;28;20462;-91
2024/02/11 00:42:06;;;;;;;22.20;18.00;;;;;;;9.34;100.00;153758.50;5033766;28;20501;-91
2024/02/11 00:44:34;;;;;;;22.40;18.33;;;;;;;9.35;100.00;153761.06;5034043;28;20862;-91
2024/02/11 00:47:02;;;;;;;28.27;19.33;;;;;;;9.36;100.00;153762.38;5052153;28;20487;-90
2024/02/11 00:49:31;;;;;;;21.57;18.47;;;;;;;9.37;100.00;153766.22;5052485;28;20447;-91
2024/02/11 00:51:58;;;;;;;24.67;17.77;;;;;;;9.36;100.00;153763.66;5034230;28;20492;-91
2024/02/11 00:54:24;;;;;;;21.87;17.00;;;;;;;9.35;100.00;153761.06;5033875;28;20497;-91
2024/02/11 00:56:54;;;;;;;22.37;17.03;;;;;;;9.34;100.00;153757.22;5034491;28;20447;-91
2024/02/11 00:59:21;;;;;;;22.30;17.50;;;;;;;9.34;100.00;153757.22;5034675;28;20454;-91
2024/02/11 01:01:48;;;;;;;22.60;18.07;;;;;;;9.32;100.00;153753.31;5003137;28;20443;-91
2024/02/11 01:04:15;;;;;;;23.87;17.57;;;;;;;9.33;100.00;153755.91;5028143;28;20531;-91
2024/02/11 01:06:41;;;;;;;23.27;19.10;;;;;;;9.34;100.00;153757.22;5032648;28;20980;-91
2024/02/11 01:09:08;;;;;;;25.00;18.47;;;;;;;9.33;100.00;153755.91;5034057;28;20442;-91
2024/02/11 01:11:35;;;;;;;22.37;17.70;;;;;;;9.32;100.00;153753.31;5017470;28;20549;-91
2024/02/11 01:14:03;;;;;;;23.87;18.10;;;;;;;9.36;100.00;153763.66;5052470;28;20469;-91
2024/02/11 01:16:29;;;;;;;22.60;17.53;;;;;;;9.35;100.00;153761.06;5033665;28;20447;-91
2024/02/11 01:18:56;;;;;;;19.50;15.90;;;;;;;9.33;100.00;153754.59;5013757;28;20444;-91
2024/02/11 01:21:23;;;;;;;24.77;18.70;;;;;;;9.32;100.00;153753.31;5020818;28;20462;-92
2024/02/11 01:23:50;;;;;;;22.10;16.90;;;;;;;9.30;100.00;153748.13;5032353;28;20442;-90
2024/02/11 01:26:16;;;;;;;22.47;18.57;;;;;;;9.31;100.00;153750.75;5028667;28;20540;-90
2024/02/11 01:28:44;;;;;;;23.17;18.30;;;;;;;9.31;100.00;153750.75;5036904;28;20958;-90
2024/02/11 01:31:12;;;;;;;26.07;19.50;;;;;;;9.31;100.00;153749.44;5015170;28;20450;-90
2024/02/11 01:33:39;;;;;;;24.40;19.17;;;;;;;9.31;100.00;153749.44;5031212;28;20478;-89
2024/02/11 01:36:05;;;;;;;24.40;18.27;;;;;;;9.29;100.00;153745.59;5036339;28;20467;-89
2024/02/11 01:38:32;;;;;;;23.53;17.60;;;;;;;9.32;100.00;153753.31;5030946;28;20451;-89
2024/02/11 01:40:59;;;;;;;23.00;16.97;;;;;;;9.29;100.00;153744.28;5013857;28;20463;-89
2024/02/11 01:43:26;;;;;;;22.90;17.40;;;;;;;9.29;100.00;153745.59;5042081;28;20460;-88
2024/02/11 01:45:52;;;;;;;22.77;17.60;;;;;;;9.28;100.00;153742.97;5028355;28;20482;-90
2024/02/11 01:48:20;;;;;;;23.63;18.27;;;;;;;9.28;100.00;153742.97;5039176;28;20509;-90
2024/02/11 01:50:52;;;;;;;24.10;17.83;;;;;;;9.27;100.00;153740.38;5043943;28;20470;-90
2024/02/11 01:53:19;;;;;;;22.00;16.23;;;;;;;9.28;100.00;153742.97;5030373;28;20427;-90
2024/02/11 01:55:46;;;;;;;22.77;17.43;;;;;;;9.29;100.00;153745.59;5047776;28;20458;-90
2024/02/11 01:58:14;;;;;;;25.90;19.57;;;;;;;9.27;100.00;153740.38;5030847;28;20896;-90
2024/02/11 02:00:41;;;;;;;24.07;17.97;;;;;;;9.28;100.00;153742.97;5029077;28;20480;-91
2024/02/11 02:03:08;;;;;;;22.60;19.27;;;;;;;9.30;100.00;153746.84;5052842;28;20443;-90
2024/02/11 02:05:37;;;;;;;23.53;19.30;;;;;;;9.28;100.00;153742.97;5030564;28;20516;-91
2024/02/11 02:08:06;;;;;;;22.07;17.60;;;;;;;9.27;100.00;153740.38;5026793;28;20463;-90
2024/02/11 02:10:32;;;;;;;24.77;18.00;;;;;;;9.29;100.00;153745.59;5018882;28;20821;-90
2024/02/11 02:12:58;;;;;;;25.00;18.43;;;;;;;9.26;100.00;153737.81;5027415;28;20800;-90
2024/02/11 02:15:25;;;;;;;22.93;17.17;;;;;;;9.26;100.00;153737.81;5039895;28;20774;-90
2024/02/11 02:17:52;;;;;;;26.20;19.07;;;;;;;9.28;100.00;153742.97;5049045;28;21127;-90
2024/02/11 02:20:19;;;;;;;25.10;17.87;;;;;;;9.28;100.00;153741.69;5042646;28;20509;-90
2024/02/11 02:22:48;;;;;;;23.23;16.73;;;;;;;9.26;100.00;153737.81;5032000;28;20458;-90
2024/02/11 02:25:14;;;;;;;26.00;18.60;;;;;;;9.26;100.00;153737.81;5031015;28;20967;-91
2024/02/11 02:27:41;;;;;;;22.47;17.20;;;;;;;9.28;100.00;153741.69;5048869;28;20479;-90
2024/02/11 02:30:08;;;;;;;22.30;17.27;;;;;;;9.29;100.00;153745.59;5050228;28;20483;-90
2024/02/11 02:32:35;;;;;;;22.40;18.40;;;;;;;9.30;100.00;153748.13;5023269;28;20474;-91
2024/02/11 02:35:03;;;;;;;22.00;17.90;;;;;;;9.30;100.00;153748.13;5031720;28;20435;-91
2024/02/11 02:37:29;;;;;;;23.33;18.07;;;;;;;9.30;100.00;153748.13;5031891;28;20521;-91
2024/02/11 02:39:57;;;;;;;21.97;17.40;;;;;;;9.30;100.00;153746.84;5031393;28;20471;-91
2024/02/11 02:42:24;;;;;;;20.93;17.00;;;;;;;9.28;100.00;153741.69;5049713;28;20872;-91
2024/02/11 02:44:50;;;;;;;22.20;16.00;;;;;;;9.27;100.00;153740.38;5014973;28;20431;-90
2024/02/11 02:47:17;;;;;;;21.77;16.33;;;;;;;9.26;100.00;153736.50;5039357;28;20478;-90
2024/02/11 02:49:45;;;;;;;19.33;16.60;;;;;;;9.26;100.00;153737.81;5050496;28;20890;-91
2024/02/11 02:52:12;;;;;;;19.50;16.07;;;;;;;9.26;100.00;153737.81;5014751;28;20898;-90
2024/02/11 02:54:43;;;;;;;21.20;16.67;;;;;;;9.27;100.00;153740.38;5050144;28;20497;-90
2024/02/11 02:57:12;;;;;;;19.60;16.00;;;;;;;9.27;100.00;153739.06;5031958;28;20440;-91
2024/02/11 02:59:39;;;;;;;20.03;16.27;;;;;;;9.29;100.00;153745.59;5031654;28;20876;-91
2024/02/11 03:02:07;;;;;;;18.50;14.63;;;;;;;9.28;100.00;153742.97;5049813;28;20795;-91
2024/02/11 03:04:37;;;;;;;15.30;12.00;;;;;;;9.26;100.00;153737.81;5049989;28;20459;-91
2024/02/11 03:07:04;;;;;;;12.90;10.13;;;;;;;9.26;100.00;153736.50;5053862;28;20864;-91
2024/02/11 03:09:30;;;;;;;11.13;8.10;;;;;;;9.23;100.00;153730.03;5036456;28;20446;-91
2024/02/11 03:11:57;;;;;;;6.47;4.60;;;;;;;9.18;100.00;153717.13;5036139;28;20822;-91
2024/02/11 03:14:25;;;;;;;3.60;2.83;;;;;;;9.14;100.00;153708.03;5019753;28;20443;-91
2024/02/11 03:16:51;;;;;;;2.60;2.10;;;;;;;9.06;100.00;153686.06;5036690;28;20446;-92
2024/02/11 03:19:20;;;;;;;2.70;1.90;;;;;;;9.04;100.00;153680.88;5037880;28;20454;-92
2024/02/11 03:21:48;;;;;;;1.70;1.07;;;;;;;9.00;100.00;153670.56;5036706;28;20449;-92
2024/02/11 03:24:15;;;;;;;1.40;1.20;;;;;;;8.95;100.00;153658.91;5020055;28;20454;-92
2024/02/11 03:26:42;;;;;;;1.00;0.70;;;;;;;8.90;100.00;153644.66;5038874;28;20475;-92
2024/02/11 03:29:08;;;;;;;1.23;0.60;;;;;;;8.85;100.00;153633.03;5000276;28;20444;-93
2024/02/11 03:31:36;;;;;;;0.80;0.50;;;;;;;8.81;100.00;153621.41;5016253;28;20483;-92
2024/02/11 03:34:04;;;;;;;0.80;0.30;;;;;;;8.76;100.00;153609.81;5034587;28;20489;-92
2024/02/11 03:36:31;;;;;;;1.23;0.40;;;;;;;8.71;100.00;153595.56;5016366;28;21047;-92
2024/02/11 03:38:58;;;;;;;1.20;0.40;;;;;;;8.71;100.00;153595.56;5034972;28;20434;-92
2024/02/11 03:41:24;;;;;;;0.73;0.30;;;;;;;8.71;100.00;153595.56;5035862;28;20455;-92
2024/02/11 03:43:51;;;;;;;0.80;0.33;;;;;;;8.66;100.00;153583.91;5019336;28;20451;-92
2024/02/11 03:46:17;;;;;;;0.70;0.30;;;;;;;8.62;100.00;153572.28;5018919;28;20496;-92
2024/02/11 03:48:45;;;;;;;0.80;0.40;;;;;;;8.58;100.00;153563.22;5035378;28;20435;-92
2024/02/11 03:51:11;;;;;;;1.30;0.30;;;;;;;8.57;100.00;153561.97;5018843;28;20445;-92
2024/02/11 03:53:38;;;;;;;0.70;0.23;;;;;;;8.50;100.00;153543.84;5035209;28;20447;-92
2024/02/11 03:56:06;;;;;;;0.70;0.20;;;;;;;8.46;100.00;153533.53;5018588;28;20467;-92
2024/02/11 03:58:34;;;;;;;1.27;0.30;;;;;;;8.42;100.00;153521.84;5035091;28;20522;-92
2024/02/11 04:01:00;;;;;;;0.90;0.40;;;;;;;8.40;100.00;153516.69;5052735;28;20830;-92
2024/02/11 04:03:27;;;;;;;0.70;0.20;;;;;;;8.37;100.00;153510.22;5051329;28;20501;-92
2024/02/11 04:05:55;;;;;;;0.70;0.20;;;;;;;8.36;100.00;153507.69;5052765;28;20458;-92
2024/02/11 04:08:22;;;;;;;0.80;0.40;;;;;;;8.35;100.00;153503.78;5035022;28;21015;-92
2024/02/11 04:10:52;;;;;;;0.80;0.30;;;;;;;8.28;100.00;153487.00;5053006;28;20439;-92
2024/02/11 04:13:23;;;;;;;0.70;0.20;;;;;;;8.19;100.00;153463.66;5038018;28;20467;-92
2024/02/11 04:15:51;;;;;;;0.83;0.40;;;;;;;8.10;100.00;153440.38;5033574;28;20442;-92
2024/02/11 04:18:21;;;;;;;0.67;0.20;;;;;;;8.14;100.00;153449.44;5052628;28;20527;-92
2024/02/11 04:20:48;;;;;;;0.63;0.20;;;;;;;8.06;100.00;153428.75;5017705;28;20446;-92
2024/02/11 04:23:16;;;;;;;0.70;0.30;;;;;;;8.01;100.00;153417.16;5018059;28;20467;-92
2024/02/11 04:25:45;;;;;;;0.90;0.30;;;;;;;8.03;100.00;153421.00;5050897;28;20463;-92
2024/02/11 04:28:12;;;;;;;0.80;0.40;;;;;;;7.91;100.00;153391.31;5049492;28;20474;-92
2024/02/11 04:30:42;;;;;;;1.07;0.40;;;;;;;7.90;100.00;153388.72;5034398;28;20443;-92
2024/02/11 04:33:11;;;;;;;1.37;0.40;;;;;;;7.89;100.00;153386.13;5034246;28;20478;-92
2024/02/11 04:35:39;;;;;;;0.70;0.20;;;;;;;7.94;100.00;153400.34;5017912;28;20457;-91
2024/02/11 04:38:12;;;;;;;0.90;0.33;;;;;;;7.87;100.00;153382.25;5020637;28;20458;-91
2024/02/11 04:40:40;;;;;;;0.70;0.30;;;;;;;7.83;100.00;153370.66;5016706;28;20451;-91
2024/02/11 04:43:07;;;;;;;0.90;0.40;;;;;;;7.77;100.00;153356.44;5028538;28;20443;-91
2024/02/11 04:45:35;;;;;;;0.80;0.40;;;;;;;7.78;100.00;153357.72;4999822;28;20487;-91
2024/02/11 04:48:03;;;;;;;0.90;0.40;;;;;;;7.73;100.00;153344.81;5027021;28;20474;-90
2024/02/11 04:50:31;;;;;;;0.97;0.30;;;;;;;7.77;100.00;153355.13;5018003;28;20505;-90
2024/02/11 04:53:02;;;;;;;0.90;0.37;;;;;;;7.76;100.00;153352.53;5011722;28;20448;-90
2024/02/11 04:55:38;;;;;;;1.47;0.30;;;;;;;7.72;100.00;153343.53;5023741;28;20874;-92
2024/02/11 04:58:11;;;;;;;1.57;0.30;;;;;;;7.73;100.00;153344.81;5017534;28;20466;-92
2024/02/11 05:00:40;;;;;;;1.63;0.30;;;;;;;7.70;100.00;153337.06;5017984;28;20929;-91
2024/02/11 05:03:06;;;;;;;0.80;0.40;;;;;;;7.66;100.00;153326.72;5014092;28;20464;-91
2024/02/11 05:05:34;;;;;;;0.80;0.30;;;;;;;7.58;100.00;153307.34;5017042;28;20455;-91
2024/02/11 05:08:03;;;;;;;0.90;0.40;;;;;;;7.52;100.00;153290.56;5015571;28;20475;-91
2024/02/11 05:10:30;;;;;;;0.70;0.30;;;;;;;7.50;100.00;153285.38;5017434;28;20446;-91
2024/02/11 05:12:57;;;;;;;1.00;0.50;;;;;;;7.44;100.00;153271.16;5016852;28;20451;-91
2024/02/11 05:15:25;;;;;;;0.93;0.30;;;;;;;7.41;100.00;153262.16;5015555;28;20451;-91
2024/02/11 05:17:54;;;;;;;1.20;0.30;;;;;;;7.38;100.00;153255.69;5017047;28;20438;-91
2024/02/11 05:20:21;;;;;;;1.03;0.40;;;;;;;7.29;100.00;153232.44;5017243;28;20449;-91
2024/02/11 05:22:49;;;;;;;0.77;0.33;;;;;;;7.25;100.00;153222.13;5017478;28;20427;-91
2024/02/11 05:25:19;;;;;;;0.80;0.30;;;;;;;7.21;100.00;153213.06;5013805;28;20444;-90
2024/02/11 05:27:53;;;;;;;0.80;0.40;;;;;;;7.21;100.00;153213.06;5012045;28;20562;-90
2024/02/11 05:30:20;;;;;;;0.90;0.40;;;;;;;7.21;100.00;153213.06;5040986;28;20482;-91
2024/02/11 05:32:48;;;;;;;0.80;0.40;;;;;;;7.19;100.00;153206.63;5014116;28;20880;-90
2024/02/11 05:35:17;;;;;;;1.50;0.30;;;;;;;7.15;100.00;153196.25;5029173;28;20551;-90
2024/02/11 05:37:44;;;;;;;0.70;0.30;;;;;;;7.12;100.00;153189.81;5007894;28;20514;-91
2024/02/11 05:40:11;;;;;;;0.80;0.40;;;;;;;7.09;100.00;153182.09;5030319;28;20462;-92
2024/02/11 05:42:42;;;;;;;0.70;0.30;;;;;;;7.06;100.00;153174.34;5000221;28;20448;-92
2024/02/11 05:45:10;;;;;;;0.70;0.30;;;;;;;7.07;100.00;153176.91;5015079;28;20883;-91
2024/02/11 05:47:37;;;;;;;0.80;0.40;;;;;;;7.05;100.00;153171.75;5016102;28;20478;-92
2024/02/11 05:50:08;;;;;;;1.10;0.47;;;;;;;7.03;100.00;153166.59;5012704;28;20513;-92
2024/02/11 05:52:35;;;;;;;1.03;0.50;;;;;;;7.10;100.00;153184.66;5021390;28;20505;-91
2024/02/11 05:55:02;;;;;;;1.00;0.50;;;;;;;7.07;100.00;153175.66;5016213;28;20447;-92
2024/02/11 05:57:29;;;;;;;0.80;0.40;;;;;;;7.04;100.00;153169.16;5016716;28;20436;-92
2024/02/11 05:59:56;;;;;;;0.90;0.40;;;;;;;6.99;100.00;153155.00;5016479;28;21010;-91
2024/02/11 06:02:23;;;;;;;0.90;0.40;;;;;;;6.99;100.00;153155.00;5016773;28;20538;-91
2024/02/11 06:04:52;;;;;;;1.13;0.60;;;;;;;6.97;100.00;153151.09;5016974;28;20469;-92
2024/02/11 06:07:20;;;;;;;1.07;0.60;;;;;;;6.92;100.00;153138.19;5014837;28;20471;-92
2024/02/11 06:09:47;;;;;;;1.10;0.57;;;;;;;6.94;100.00;153143.34;5012590;28;20451;-92
2024/02/11 06:12:15;;;;;;;1.23;0.73;;;;;;;6.93;100.00;153140.78;5013282;28;20443;-92
2024/02/11 06:14:41;;;;;;;3.47;1.10;;;;;;;6.92;100.00;153138.19;5012085;28;20459;-92
2024/02/11 06:17:08;;;;;;;1.77;0.90;;;;;;;6.91;100.00;153135.59;5030949;28;20462;-92
2024/02/11 06:19:35;;;;;;;1.57;0.80;;;;;;;6.85;100.00;153120.13;5032721;28;20451;-92
2024/02/11 06:22:02;;;;;;;1.20;0.90;;;;;;;6.83;100.00;153114.94;5013073;28;20458;-92
2024/02/11 06:24:32;;;;;;;4.10;0.90;;;;;;;6.80;100.00;153105.91;5008829;28;20529;-92
2024/02/11 06:26:59;;;;;;;1.07;0.80;;;;;;;6.79;100.00;153104.63;5011120;28;20498;-92
2024/02/11 06:29:27;;;;;;;1.03;0.83;;;;;;;6.78;100.00;153102.03;5018210;28;20444;-93
2024/02/11 06:31:54;;;;;;;1.30;0.70;;;;;;;6.77;100.00;153098.19;5016530;28;20494;-92
2024/02/11 06:34:22;;;;;;;1.30;0.80;;;;;;;6.75;100.00;153095.56;5016615;28;20443;-92
2024/02/11 06:36:49;;;;;;;1.13;0.60;;;;;;;6.67;100.00;153074.91;5049752;28;20477;-93
2024/02/11 06:39:18;;;;;;;1.00;0.70;;;;;;;6.66;100.00;153071.06;5032929;28;20434;-93
2024/02/11 06:41:46;;;;;;;1.20;0.90;;;;;;;6.63;100.00;153064.63;5049672;28;20442;-92
2024/02/11 06:44:16;;;;;;;1.20;0.90;;;;;;;6.64;100.00;153067.22;5012758;28;20447;-91
2024/02/11 06:46:43;;;;;;;1.50;0.80;;;;;;;6.70;100.00;153081.38;5015820;28;20553;-93
2024/02/11 06:49:09;;;;;;;1.40;0.80;;;;;;;6.73;100.00;153089.13;5033207;28;20502;-92
2024/02/11 06:51:36;;;;;;;1.30;1.00;;;;;;;6.68;100.00;153076.22;5016621;28;20439;-93
2024/02/11 06:54:03;;;;;;;1.23;0.73;;;;;;;6.63;100.00;153063.31;5016828;28;20488;-93
2024/02/11 06:56:30;;;;;;;1.20;0.90;;;;;;;6.61;100.00;153059.47;5033076;28;20855;-93
2024/02/11 06:58:58;;;;;;;1.10;0.83;;;;;;;6.62;100.00;153060.72;5010040;28;20520;-93
2024/02/11 07:01:25;;;;;;;1.30;0.90;;;;;;;6.61;100.00;153058.16;4996972;28;20475;-94
2024/02/11 07:03:52;;;;;;;1.23;1.00;;;;;;;6.60;100.00;153056.88;4996982;28;20519;-93
2024/02/11 07:06:18;;;;;;;1.70;1.30;;;;;;;6.58;100.00;153051.72;5015009;28;20486;-93
2024/02/11 07:08:45;;;;;;;1.70;1.20;;;;;;;6.60;100.00;153055.56;5016494;28;20551;-94
2024/02/11 07:11:12;;;;;;;1.50;1.10;;;;;;;6.54;100.00;153041.38;5016387;28;20784;-93
2024/02/11 07:13:39;;;;;;;1.60;1.10;;;;;;;6.58;100.00;153051.72;5016646;28;20471;-93
2024/02/11 07:16:08;;;;;;;1.43;1.00;;;;;;;6.60;100.00;153056.88;5016105;28;20469;-94
2024/02/11 07:18:36;;;;;;;1.70;1.00;;;;;;;6.59;100.00;153054.28;5016283;28;20447;-93
2024/02/11 07:21:03;;;;;;;2.67;1.40;;;;;;;6.57;100.00;153047.81;5016451;28;20455;-93
2024/02/11 07:23:29;;;;;;;1.57;1.47;;;;;;;6.59;100.00;153053.00;5015817;28;20446;-93
2024/02/11 07:25:57;;;;;;;1.53;1.30;;;;;;;6.56;100.00;153046.56;5016669;28;20943;-93
2024/02/11 07:28:24;;;;;;;2.23;1.47;;;;;;;6.56;100.00;153046.56;5016795;28;20561;-92
2024/02/11 07:30:51;;;;;;;2.07;1.63;;;;;;;6.56;100.00;153046.56;5017028;28;20447;-92
2024/02/11 07:33:23;;;;;;;1.77;1.40;;;;;;;6.54;100.00;153040.13;5028372;28;20570;-92
2024/02/11 07:35:50;;;;;;;2.40;1.67;;;;;;;6.55;100.00;153043.97;5016681;28;20480;-93
2024/02/11 07:38:16;;;;;;;2.10;1.57;;;;;;;6.56;100.00;153046.56;5036372;28;20454;-93
2024/02/11 07:40:43;;;;;;;2.37;2.00;;;;;;;6.58;100.00;153050.41;5032646;28;20960;-92
2024/02/11 07:43:10;;;;;;;2.50;2.10;;;;;;;6.60;100.00;153056.88;5033105;28;20458;-93
2024/02/11 07:45:41;;;;;;;2.13;1.30;;;;;;;6.62;100.00;153060.72;5033172;28;20505;-93
2024/02/11 07:48:08;;;;;;;2.33;1.90;;;;;;;6.62;100.00;153060.72;5033219;28;20477;-93
2024/02/11 07:50:36;;;;;;;2.90;2.30;;;;;;;6.65;100.00;153068.47;5036259;28;20535;-93
2024/02/11 07:53:04;;;;;;;3.57;2.40;;;;;;;6.65;100.00;153069.78;5039654;28;20441;-93
2024/02/11 07:55:33;;;;;;;2.90;2.23;;;;;;;6.66;100.00;153071.06;5040220;28;20468;-93
2024/02/11 07:58:04;;;;;;;4.07;2.67;;;;;;;6.70;100.00;153081.38;5039644;28;20662;-93
2024/02/11 08:00:31;;;;;;;3.50;2.97;;;;;;;6.72;100.00;153086.56;5019877;28;20478;-92
2024/02/11 08:02:58;;;;;;;4.43;2.80;;;;;;;6.75;100.00;153094.31;5035542;28;20438;-94
2024/02/11 08:05:25;;;;;;;3.67;2.60;;;;;;;6.73;100.00;153090.41;5039640;28;20493;-94
2024/02/11 08:07:53;;;;;;;4.43;3.13;;;;;;;6.74;100.00;153091.72;5056174;28;21014;-94
2024/02/11 08:10:21;;;;;;;5.60;3.80;;;;;;;6.75;100.00;153095.56;5036646;28;20443;-94
2024/02/11 08:12:48;;;;;;;5.03;3.40;;;;;;;6.79;100.00;153104.63;5046692;28;20457;-94
2024/02/11 08:15:15;;;;;;;4.20;2.87;;;;;;;6.81;100.00;153108.47;5048169;28;20472;-94
2024/02/11 08:17:42;;;;;;;4.20;3.10;;;;;;;6.81;100.00;153109.78;5031281;28;20456;-93
2024/02/11 08:20:10;;;;;;;4.63;3.77;;;;;;;6.84;100.00;153117.53;5051956;28;20450;-92
2024/02/11 08:22:37;;;;;;;3.80;3.17;;;;;;;6.82;100.00;153112.38;5079552;28;20833;-92
2024/02/11 08:25:08;;;;;;;5.50;3.70;;;;;;;6.86;100.00;153121.44;5070084;28;20473;-93
2024/02/11 08:27:35;;;;;;;3.73;3.30;;;;;;;6.87;100.00;153123.97;5050952;28;20521;-93
2024/02/11 08:30:02;;;;;;;5.13;3.50;;;;;;;6.85;100.00;153118.81;5047131;28;20580;-93
2024/02/11 08:32:28;;;;;;;6.47;4.10;;;;;;;6.87;100.00;153125.28;5028376;28;20482;-94
2024/02/11 08:34:55;;;;;;;4.63;3.50;;;;;;;6.91;100.00;153135.59;5027678;28;20477;-93
2024/02/11 08:37:22;;;;;;;6.77;3.30;;;;;;;6.95;100.00;153145.94;5016169;28;20448;-93
2024/02/11 08:39:50;;;;;;;7.27;4.30;;;;;;;6.96;100.00;153148.53;5024390;28;20444;-93
2024/02/11 08:42:18;;;;;;;4.73;3.50;;;;;;;6.99;100.00;153156.25;5020409;28;20489;-93
2024/02/11 08:44:44;;;;;;;4.63;3.50;;;;;;;7.02;100.00;153164.00;5012680;28;20505;-93
2024/02/11 08:47:11;;;;;;;6.27;4.80;;;;;;;7.06;100.00;153173.03;5033422;28;20871;-94
2024/02/11 08:49:39;;;;;;;7.23;4.00;;;;;;;7.06;100.00;153174.34;5024674;28;20470;-93
2024/02/11 08:52:06;;;;;;;5.90;4.10;;;;;;;7.10;100.00;153183.34;5015824;28;20463;-93
2024/02/11 08:54:34;;;;;;;5.93;3.83;;;;;;;7.12;100.00;153189.81;5016344;28;20459;-93
2024/02/11 08:57:01;;;;;;;4.80;3.50;;;;;;;7.17;100.00;153201.47;5027086;28;20981;-93
2024/02/11 08:59:30;;;;;;;5.73;4.00;;;;;;;7.23;100.00;153218.22;5015621;28;20542;-92
2024/02/11 09:01:58;;;;;;;4.80;3.40;;;;;;;7.28;100.00;153231.13;5036946;28;20467;-92
2024/02/11 09:04:26;;;;;;;5.27;3.40;;;;;;;7.31;100.00;153237.59;5020469;28;20478;-92
2024/02/11 09:06:55;;;;;;;4.70;3.17;;;;;;;7.36;100.00;153250.50;5021984;28;20452;-92
2024/02/11 09:09:25;;;;;;;4.77;3.47;;;;;;;7.40;100.00;153259.53;5041272;28;20477;-92
2024/02/11 09:11:53;;;;;;;5.10;3.80;;;;;;;7.45;100.00;153273.75;5016705;28;20945;-93
2024/02/11 09:14:20;;;;;;;5.40;3.73;;;;;;;7.48;100.00;153280.22;5005032;28;20937;-92
2024/02/11 09:16:48;;;;;;;4.40;3.00;;;;;;;7.49;100.00;153284.13;5011960;28;20456;-93
2024/02/11 09:19:15;;;;;;;5.37;3.77;;;;;;;7.52;100.00;153291.81;5013259;28;20455;-93
2024/02/11 09:21:41;;;;;;;4.80;3.80;;;;;;;7.55;100.00;153298.28;5014182;28;20450;-93
2024/02/11 09:24:10;;;;;;;4.90;3.73;;;;;;;7.58;100.00;153307.34;5012578;28;20512;-92
2024/02/11 09:26:37;;;;;;;4.80;4.30;;;;;;;7.64;100.00;153322.84;5014236;28;20451;-92
2024/02/11 09:29:05;;;;;;;4.83;3.77;;;;;;;7.66;100.00;153326.72;5028556;28;20516;-92
2024/02/11 09:31:32;;;;;;;3.83;3.00;;;;;;;7.69;100.00;153334.47;5010159;28;20473;-92
2024/02/11 09:38:05;;;;;;;6.50;3.50;;;;;;;7.75;100.00;153349.97;5054390;23;20481;-92
2024/02/11 09:40:37;;;;;;;3.90;3.23;;;;;;;7.78;100.00;153358.97;5032158;28;20962;-91
2024/02/11 09:43:46;;;;;;;5.10;3.90;;;;;;;7.86;100.00;153378.41;5019616;28;20542;-94
2024/02/11 09:55:05;;;;;;;5.30;4.00;;;;;;;7.96;100.00;153404.22;4995753;28;20477;-91
2024/02/11 09:57:45;;;;;;;6.90;4.30;;;;;;;8.00;100.00;153414.53;4978635;28;20457;-92
2024/02/11 10:00:15;;;;;;;5.67;4.20;;;;;;;8.03;100.00;153421.00;5013000;28;20470;-91
2024/02/11 10:03:09;;;;;;;6.57;4.20;;;;;;;8.02;100.00;153419.75;5017408;28;20467;-90
2024/02/11 10:05:45;;;;;;;7.17;4.20;;;;;;;8.08;100.00;153435.22;5038341;28;20465;-91
2024/02/11 10:08:16;;;;;;;5.33;4.00;;;;;;;8.10;100.00;153440.38;5019867;28;20461;-91
2024/02/11 10:10:45;;;;;;;7.03;4.83;;;;;;;8.14;100.00;153450.75;5051431;28;20477;-91
2024/02/11 10:13:19;;;;;;;7.47;4.30;;;;;;;8.15;100.00;153453.34;5016768;28;20458;-91
2024/02/11 10:15:48;;;;;;;5.70;4.57;;;;;;;8.14;100.00;153450.75;5028732;28;20850;-90
2024/02/11 10:18:17;;;;;;;5.27;4.07;;;;;;;8.18;100.00;153461.06;5036083;28;20492;-90
2024/02/11 10:20:47;;;;;;;5.33;3.93;;;;;;;8.21;100.00;153468.81;5026815;28;20472;-90
2024/02/11 10:23:20;;;;;;;6.77;4.40;;;;;;;8.22;100.00;153471.44;5012738;28;20498;-91
2024/02/11 10:25:53;;;;;;;6.00;4.30;;;;;;;8.26;100.00;153480.50;5015182;28;20976;-90
2024/02/11 10:28:22;;;;;;;6.30;3.70;;;;;;;8.31;100.00;153494.72;5012687;28;20455;-91
2024/02/11 10:30:51;;;;;;;5.00;3.90;;;;;;;8.34;100.00;153502.47;5038644;23;20483;-91
2024/02/11 10:33:19;;;;;;;7.13;4.20;;;;;;;8.40;100.00;153518.00;5050607;28;20454;-91
2024/02/11 10:35:48;;;;;;;5.67;4.47;;;;;;;8.46;100.00;153533.53;5034920;28;20507;-91
2024/02/11 10:38:14;;;;;;;8.27;3.83;;;;;;;8.53;100.00;153550.28;5041767;28;20493;-91
2024/02/11 10:40:44;;;;;;;6.80;4.30;;;;;;;8.57;100.00;153561.97;5045238;28;20467;-90
2024/02/11 10:43:15;;;;;;;6.10;3.83;;;;;;;8.60;100.00;153567.13;5043555;28;20454;-89
2024/02/11 10:45:41;;;;;;;5.10;4.30;;;;;;;8.64;100.00;153578.75;5065917;28;20472;-89
2024/02/11 10:48:09;;;;;;;8.60;4.37;;;;;;;8.69;100.00;153591.66;5047600;28;20477;-89
2024/02/11 10:50:36;;;;;;;6.00;3.67;;;;;;;8.76;100.00;153608.50;5048850;28;20472;-89
2024/02/11 10:53:04;;;;;;;6.90;4.60;;;;;;;8.80;100.00;153620.13;5050784;28;20455;-89
2024/02/11 10:55:33;;;;;;;4.57;4.10;;;;;;;8.87;100.00;153636.94;5032734;28;20453;-89
2024/02/11 10:58:00;;;;;;;6.87;3.97;;;;;;;8.90;100.00;153644.66;5059187;28;20504;-89
2024/02/11 11:00:31;;;;;;;4.87;3.57;;;;;;;8.97;100.00;153664.09;5082435;28;20438;-90
2024/02/11 11:02:59;;;;;;;5.70;4.10;;;;;;;9.04;100.00;153680.88;5081403;28;20453;-88
2024/02/11 11:05:30;;;;;;;5.07;3.87;;;;;;;9.09;100.00;153693.81;5044677;28;20478;-90
2024/02/11 11:07:57;;;;;;;6.60;4.00;;;;;;;9.09;100.00;153693.81;5060042;28;20511;-90
2024/02/11 11:10:28;;;;;;;4.30;3.87;;;;;;;9.13;100.00;153705.44;5041240;28;20482;-90
2024/02/11 11:12:56;;;;;;;6.40;4.70;;;;;;;9.15;100.00;153709.34;5061943;28;20469;-90
2024/02/11 11:15:23;;;;;;;4.53;3.40;;;;;;;9.15;100.00;153709.34;5058252;28;20567;-90
2024/02/11 11:17:51;;;;;;;4.10;3.27;;;;;;;9.14;100.00;153706.75;5043828;28;20898;-90
2024/02/11 11:20:19;;;;;;;4.13;3.33;;;;;;;9.12;100.00;153701.59;5047514;28;20436;-90
2024/02/11 11:22:49;;;;;;;4.17;3.70;;;;;;;9.06;100.00;153687.34;5039864;28;21038;-90
2024/02/11 11:25:16;;;;;;;5.50;3.10;;;;;;;9.07;100.00;153688.66;5055897;28;20447;-90
2024/02/11 11:27:43;;;;;;;3.47;3.00;;;;;;;9.06;100.00;153686.06;5062909;28;20454;-90
2024/02/11 11:30:10;;;;;;;4.80;4.10;;;;;;;9.05;100.00;153683.50;5028076;28;20497;-90
2024/02/11 11:32:42;;;;;;;5.33;3.70;;;;;;;9.04;100.00;153680.88;5057768;28;20483;-90
2024/02/11 11:35:12;;;;;;;5.27;3.50;;;;;;;9.08;100.00;153691.25;5047501;28;20457;-90
2024/02/11 11:37:38;;;;;;;3.60;3.20;;;;;;;9.11;100.00;153698.97;5064682;28;20449;-90